(706) 295-7835

For Pilots

METAR

KRMG 180153Z AUTO 04003KT 10SM CLR 26/19 A2996 RMK AO2 SLP136 T02610189

Location & Communications

Get detailed information about the airport, provided by AirNav.

Pilot Services

We have fuel services, on-site repair and maintenance, 24-hour security and more.

Fuel Points

Russell Regional Airport is a Shell Aviation merchant and is proud to participate in the Shell Aero Class Rewards program!

Hangar Availability

RMG offers 66 various sized T-Hangars for tenants and visitors (upon availability). Below, you will find the sizes of the hangars offered at RMG. If […]

Today's Fuel Prices

Jet A $5.20 / gallon
AvGas (100LL) $4.65 / gallon
Self Serve AvGas $4.27 / gallon
Learn about fuel points program